sensor_id;sensor_type;location;lat;lon;timestamp;P1;durP1;ratioP1;P2;durP2;ratioP2
52354;SDS011;38286;51.156;17.038;2023-02-22T00:00:15;18.58;;;4.97;;
52354;SDS011;38286;51.156;17.038;2023-02-22T00:03:04;21.02;;;5.15;;
52354;SDS011;38286;51.156;17.038;2023-02-22T00:05:31;21.27;;;5.95;;
52354;SDS011;38286;51.156;17.038;2023-02-22T00:07:57;16.52;;;5.50;;
52354;SDS011;38286;51.156;17.038;2023-02-22T00:10:25;17.35;;;5.38;;
52354;SDS011;38286;51.156;17.038;2023-02-22T00:12:52;16.83;;;5.50;;
52354;SDS011;38286;51.156;17.038;2023-02-22T00:15:22;18.27;;;4.97;;
52354;SDS011;38286;51.156;17.038;2023-02-22T00:17:52;21.40;;;5.25;;
52354;SDS011;38286;51.156;17.038;2023-02-22T00:20:18;19.90;;;4.97;;
52354;SDS011;38286;51.156;17.038;2023-02-22T00:22:45;17.50;;;4.72;;
52354;SDS011;38286;51.156;17.038;2023-02-22T00:25:12;15.40;;;4.43;;
52354;SDS011;38286;51.156;17.038;2023-02-22T00:27:38;19.80;;;4.90;;
52354;SDS011;38286;51.156;17.038;2023-02-22T00:30:04;20.63;;;4.95;;
52354;SDS011;38286;51.156;17.038;2023-02-22T00:32:31;18.50;;;4.47;;
52354;SDS011;38286;51.156;17.038;2023-02-22T00:34:56;14.82;;;4.43;;
52354;SDS011;38286;51.156;17.038;2023-02-22T00:37:22;17.48;;;5.65;;
52354;SDS011;38286;51.156;17.038;2023-02-22T00:39:48;22.10;;;4.95;;
52354;SDS011;38286;51.156;17.038;2023-02-22T00:42:15;21.85;;;5.57;;
52354;SDS011;38286;51.156;17.038;2023-02-22T00:44:41;14.73;;;4.65;;
52354;SDS011;38286;51.156;17.038;2023-02-22T00:47:07;18.52;;;5.05;;
52354;SDS011;38286;51.156;17.038;2023-02-22T00:49:33;13.43;;;4.68;;
52354;SDS011;38286;51.156;17.038;2023-02-22T00:51:59;17.85;;;4.88;;
52354;SDS011;38286;51.156;17.038;2023-02-22T00:54:25;18.73;;;5.60;;
52354;SDS011;38286;51.156;17.038;2023-02-22T00:56:51;22.77;;;5.50;;
52354;SDS011;38286;51.156;17.038;2023-02-22T00:59:17;17.08;;;5.53;;
52354;SDS011;38286;51.156;17.038;2023-02-22T01:01:43;20.52;;;5.55;;
52354;SDS011;38286;51.156;17.038;2023-02-22T01:04:09;18.52;;;5.93;;
52354;SDS011;38286;51.156;17.038;2023-02-22T01:06:35;19.85;;;6.28;;
52354;SDS011;38286;51.156;17.038;2023-02-22T01:09:01;24.52;;;6.40;;
52354;SDS011;38286;51.156;17.038;2023-02-22T01:11:27;18.55;;;5.22;;
52354;SDS011;38286;51.156;17.038;2023-02-22T01:13:53;15.32;;;5.20;;
52354;SDS011;38286;51.156;17.038;2023-02-22T01:16:20;19.65;;;5.57;;
52354;SDS011;38286;51.156;17.038;2023-02-22T01:18:45;18.48;;;5.78;;
52354;SDS011;38286;51.156;17.038;2023-02-22T01:21:11;18.10;;;5.95;;
52354;SDS011;38286;51.156;17.038;2023-02-22T01:23:37;18.38;;;5.95;;
52354;SDS011;38286;51.156;17.038;2023-02-22T01:26:03;16.95;;;5.05;;
52354;SDS011;38286;51.156;17.038;2023-02-22T01:28:30;16.42;;;4.90;;
52354;SDS011;38286;51.156;17.038;2023-02-22T01:30:56;20.20;;;5.88;;
52354;SDS011;38286;51.156;17.038;2023-02-22T01:33:22;21.27;;;5.03;;
52354;SDS011;38286;51.156;17.038;2023-02-22T01:35:48;14.88;;;4.97;;
52354;SDS011;38286;51.156;17.038;2023-02-22T01:38:15;16.90;;;5.25;;
52354;SDS011;38286;51.156;17.038;2023-02-22T01:40:42;20.05;;;5.82;;
52354;SDS011;38286;51.156;17.038;2023-02-22T01:43:33;14.43;;;5.18;;
52354;SDS011;38286;51.156;17.038;2023-02-22T01:46:02;16.85;;;4.88;;
52354;SDS011;38286;51.156;17.038;2023-02-22T01:51:24;20.38;;;6.93;;
52354;SDS011;38286;51.156;17.038;2023-02-22T01:53:54;31.23;;;7.10;;
52354;SDS011;38286;51.156;17.038;2023-02-22T01:56:21;19.60;;;5.93;;
52354;SDS011;38286;51.156;17.038;2023-02-22T01:58:49;19.10;;;6.07;;
52354;SDS011;38286;51.156;17.038;2023-02-22T02:01:16;23.67;;;7.47;;
52354;SDS011;38286;51.156;17.038;2023-02-22T02:03:43;24.70;;;6.00;;
52354;SDS011;38286;51.156;17.038;2023-02-22T02:06:11;22.52;;;7.57;;
52354;SDS011;38286;51.156;17.038;2023-02-22T02:11:18;21.45;;;6.22;;
52354;SDS011;38286;51.156;17.038;2023-02-22T02:13:45;20.05;;;5.68;;
52354;SDS011;38286;51.156;17.038;2023-02-22T02:16:11;21.90;;;5.50;;
52354;SDS011;38286;51.156;17.038;2023-02-22T02:18:36;17.90;;;5.70;;
52354;SDS011;38286;51.156;17.038;2023-02-22T02:31:57;19.23;;;6.05;;
52354;SDS011;38286;51.156;17.038;2023-02-22T02:34:49;17.58;;;5.63;;
52354;SDS011;38286;51.156;17.038;2023-02-22T02:37:20;18.95;;;6.13;;
52354;SDS011;38286;51.156;17.038;2023-02-22T02:42:37;18.70;;;5.43;;
52354;SDS011;38286;51.156;17.038;2023-02-22T02:45:17;17.30;;;6.10;;
52354;SDS011;38286;51.156;17.038;2023-02-22T02:47:47;20.90;;;6.40;;
52354;SDS011;38286;51.156;17.038;2023-02-22T02:50:20;21.80;;;6.07;;
52354;SDS011;38286;51.156;17.038;2023-02-22T02:52:49;21.83;;;5.82;;
52354;SDS011;38286;51.156;17.038;2023-02-22T02:55:17;19.10;;;6.32;;
52354;SDS011;38286;51.156;17.038;2023-02-22T02:57:43;19.75;;;6.15;;
52354;SDS011;38286;51.156;17.038;2023-02-22T03:00:09;24.08;;;6.25;;
52354;SDS011;38286;51.156;17.038;2023-02-22T03:02:51;19.25;;;5.85;;
52354;SDS011;38286;51.156;17.038;2023-02-22T03:05:29;17.48;;;5.80;;
52354;SDS011;38286;51.156;17.038;2023-02-22T03:08:08;20.33;;;6.30;;
52354;SDS011;38286;51.156;17.038;2023-02-22T03:10:44;20.83;;;7.15;;
52354;SDS011;38286;51.156;17.038;2023-02-22T03:16:01;22.25;;;6.50;;
52354;SDS011;38286;51.156;17.038;2023-02-22T03:23:54;18.58;;;6.95;;
52354;SDS011;38286;51.156;17.038;2023-02-22T03:26:30;18.63;;;6.45;;
52354;SDS011;38286;51.156;17.038;2023-02-22T03:29:02;26.38;;;8.18;;
52354;SDS011;38286;51.156;17.038;2023-02-22T03:31:30;25.15;;;7.22;;
52354;SDS011;38286;51.156;17.038;2023-02-22T03:34:04;20.98;;;6.57;;
52354;SDS011;38286;51.156;17.038;2023-02-22T03:36:33;23.60;;;6.60;;
52354;SDS011;38286;51.156;17.038;2023-02-22T03:39:03;18.88;;;5.55;;
52354;SDS011;38286;51.156;17.038;2023-02-22T03:41:32;16.02;;;5.70;;
52354;SDS011;38286;51.156;17.038;2023-02-22T03:44:04;18.52;;;6.38;;
52354;SDS011;38286;51.156;17.038;2023-02-22T03:46:33;19.48;;;6.65;;
52354;SDS011;38286;51.156;17.038;2023-02-22T03:49:13;21.60;;;6.63;;
52354;SDS011;38286;51.156;17.038;2023-02-22T03:51:44;21.90;;;6.60;;
52354;SDS011;38286;51.156;17.038;2023-02-22T03:54:11;21.08;;;6.68;;
52354;SDS011;38286;51.156;17.038;2023-02-22T03:56:57;20.83;;;6.45;;
52354;SDS011;38286;51.156;17.038;2023-02-22T03:59:25;18.27;;;6.10;;
52354;SDS011;38286;51.156;17.038;2023-02-22T04:01:53;27.65;;;7.15;;
52354;SDS011;38286;51.156;17.038;2023-02-22T04:04:20;23.00;;;6.85;;
52354;SDS011;38286;51.156;17.038;2023-02-22T04:07:01;22.00;;;6.53;;
52354;SDS011;38286;51.156;17.038;2023-02-22T04:09:45;19.83;;;6.85;;
52354;SDS011;38286;51.156;17.038;2023-02-22T04:12:12;22.00;;;6.80;;
52354;SDS011;38286;51.156;17.038;2023-02-22T04:14:37;24.25;;;8.32;;
52354;SDS011;38286;51.156;17.038;2023-02-22T04:17:03;27.75;;;7.05;;
52354;SDS011;38286;51.156;17.038;2023-02-22T04:19:29;20.00;;;7.47;;
52354;SDS011;38286;51.156;17.038;2023-02-22T04:21:55;24.60;;;7.68;;
52354;SDS011;38286;51.156;17.038;2023-02-22T04:24:20;23.35;;;7.57;;
52354;SDS011;38286;51.156;17.038;2023-02-22T04:26:46;24.95;;;7.75;;
52354;SDS011;38286;51.156;17.038;2023-02-22T04:29:12;28.63;;;8.90;;
52354;SDS011;38286;51.156;17.038;2023-02-22T04:31:38;25.90;;;8.15;;
52354;SDS011;38286;51.156;17.038;2023-02-22T04:34:03;20.17;;;8.05;;
52354;SDS011;38286;51.156;17.038;2023-02-22T04:36:29;20.27;;;8.63;;
52354;SDS011;38286;51.156;17.038;2023-02-22T04:38:58;23.85;;;8.52;;
52354;SDS011;38286;51.156;17.038;2023-02-22T04:41:24;25.73;;;8.23;;
52354;SDS011;38286;51.156;17.038;2023-02-22T04:43:50;29.52;;;8.75;;
52354;SDS011;38286;51.156;17.038;2023-02-22T04:46:16;23.23;;;8.73;;
52354;SDS011;38286;51.156;17.038;2023-02-22T04:48:41;24.10;;;8.80;;
52354;SDS011;38286;51.156;17.038;2023-02-22T04:51:07;24.13;;;8.80;;
52354;SDS011;38286;51.156;17.038;2023-02-22T04:53:33;27.27;;;7.90;;
52354;SDS011;38286;51.156;17.038;2023-02-22T04:55:59;27.85;;;8.77;;
52354;SDS011;38286;51.156;17.038;2023-02-22T04:58:24;25.95;;;8.68;;
52354;SDS011;38286;51.156;17.038;2023-02-22T05:00:50;20.67;;;8.70;;
52354;SDS011;38286;51.156;17.038;2023-02-22T05:03:16;24.88;;;8.57;;
52354;SDS011;38286;51.156;17.038;2023-02-22T05:05:41;31.77;;;8.93;;
52354;SDS011;38286;51.156;17.038;2023-02-22T05:08:07;24.40;;;8.30;;
52354;SDS011;38286;51.156;17.038;2023-02-22T05:10:33;22.25;;;8.48;;
52354;SDS011;38286;51.156;17.038;2023-02-22T05:12:59;27.50;;;8.60;;
52354;SDS011;38286;51.156;17.038;2023-02-22T05:15:24;23.60;;;8.20;;
52354;SDS011;38286;51.156;17.038;2023-02-22T05:17:51;26.02;;;8.60;;
52354;SDS011;38286;51.156;17.038;2023-02-22T05:20:22;25.88;;;9.95;;
52354;SDS011;38286;51.156;17.038;2023-02-22T05:22:49;20.17;;;8.68;;
52354;SDS011;38286;51.156;17.038;2023-02-22T05:25:16;23.17;;;8.40;;
52354;SDS011;38286;51.156;17.038;2023-02-22T05:27:42;22.08;;;8.45;;
52354;SDS011;38286;51.156;17.038;2023-02-22T05:30:09;20.23;;;7.65;;
52354;SDS011;38286;51.156;17.038;2023-02-22T05:32:35;26.17;;;8.95;;
52354;SDS011;38286;51.156;17.038;2023-02-22T05:35:01;24.75;;;8.15;;
52354;SDS011;38286;51.156;17.038;2023-02-22T05:37:26;25.48;;;8.80;;
52354;SDS011;38286;51.156;17.038;2023-02-22T05:39:52;35.85;;;9.82;;
52354;SDS011;38286;51.156;17.038;2023-02-22T05:42:18;28.48;;;10.70;;
52354;SDS011;38286;51.156;17.038;2023-02-22T05:44:44;28.60;;;9.60;;
52354;SDS011;38286;51.156;17.038;2023-02-22T05:47:09;25.55;;;9.25;;
52354;SDS011;38286;51.156;17.038;2023-02-22T05:49:35;22.90;;;8.82;;
52354;SDS011;38286;51.156;17.038;2023-02-22T05:52:01;26.40;;;10.30;;
52354;SDS011;38286;51.156;17.038;2023-02-22T05:54:26;28.92;;;10.00;;
52354;SDS011;38286;51.156;17.038;2023-02-22T05:56:52;27.83;;;10.85;;
52354;SDS011;38286;51.156;17.038;2023-02-22T05:59:18;32.63;;;11.65;;
52354;SDS011;38286;51.156;17.038;2023-02-22T06:01:44;34.38;;;12.75;;
52354;SDS011;38286;51.156;17.038;2023-02-22T06:04:10;31.42;;;11.55;;
52354;SDS011;38286;51.156;17.038;2023-02-22T06:06:36;25.95;;;11.13;;
52354;SDS011;38286;51.156;17.038;2023-02-22T06:09:01;28.90;;;11.10;;
52354;SDS011;38286;51.156;17.038;2023-02-22T06:11:27;34.20;;;11.73;;
52354;SDS011;38286;51.156;17.038;2023-02-22T06:13:53;32.38;;;11.30;;
52354;SDS011;38286;51.156;17.038;2023-02-22T06:16:19;28.30;;;11.50;;
52354;SDS011;38286;51.156;17.038;2023-02-22T06:18:46;28.42;;;11.23;;
52354;SDS011;38286;51.156;17.038;2023-02-22T06:21:12;25.88;;;10.93;;
52354;SDS011;38286;51.156;17.038;2023-02-22T06:23:37;30.42;;;12.10;;
52354;SDS011;38286;51.156;17.038;2023-02-22T06:26:03;26.00;;;11.57;;
52354;SDS011;38286;51.156;17.038;2023-02-22T06:28:29;26.10;;;11.02;;
52354;SDS011;38286;51.156;17.038;2023-02-22T06:30:55;28.75;;;12.02;;
52354;SDS011;38286;51.156;17.038;2023-02-22T06:33:20;29.23;;;11.93;;
52354;SDS011;38286;51.156;17.038;2023-02-22T06:35:46;31.33;;;12.32;;
52354;SDS011;38286;51.156;17.038;2023-02-22T06:38:19;31.65;;;13.90;;
52354;SDS011;38286;51.156;17.038;2023-02-22T06:40:45;37.15;;;15.98;;
52354;SDS011;38286;51.156;17.038;2023-02-22T06:43:11;40.53;;;17.23;;
52354;SDS011;38286;51.156;17.038;2023-02-22T06:45:37;47.95;;;17.65;;
52354;SDS011;38286;51.156;17.038;2023-02-22T06:48:02;41.13;;;16.23;;
52354;SDS011;38286;51.156;17.038;2023-02-22T06:50:29;39.22;;;15.85;;
52354;SDS011;38286;51.156;17.038;2023-02-22T06:52:55;40.20;;;17.05;;
52354;SDS011;38286;51.156;17.038;2023-02-22T06:55:25;43.88;;;18.48;;
52354;SDS011;38286;51.156;17.038;2023-02-22T06:57:52;45.13;;;18.88;;
52354;SDS011;38286;51.156;17.038;2023-02-22T07:00:18;45.58;;;18.48;;
52354;SDS011;38286;51.156;17.038;2023-02-22T07:02:46;48.08;;;18.10;;
52354;SDS011;38286;51.156;17.038;2023-02-22T07:05:12;52.90;;;19.63;;
52354;SDS011;38286;51.156;17.038;2023-02-22T07:07:39;42.85;;;19.83;;
52354;SDS011;38286;51.156;17.038;2023-02-22T07:10:13;53.45;;;18.85;;
52354;SDS011;38286;51.156;17.038;2023-02-22T07:12:42;86.57;;;25.90;;
52354;SDS011;38286;51.156;17.038;2023-02-22T07:15:07;100.18;;;26.77;;
52354;SDS011;38286;51.156;17.038;2023-02-22T07:17:33;93.50;;;26.60;;
52354;SDS011;38286;51.156;17.038;2023-02-22T07:19:59;83.82;;;26.15;;
52354;SDS011;38286;51.156;17.038;2023-02-22T07:22:24;103.32;;;29.27;;
52354;SDS011;38286;51.156;17.038;2023-02-22T07:24:50;94.43;;;25.73;;
52354;SDS011;38286;51.156;17.038;2023-02-22T07:27:15;84.93;;;24.52;;
52354;SDS011;38286;51.156;17.038;2023-02-22T07:29:42;80.35;;;24.05;;
52354;SDS011;38286;51.156;17.038;2023-02-22T07:32:08;67.68;;;20.98;;
52354;SDS011;38286;51.156;17.038;2023-02-22T07:34:34;66.25;;;19.77;;
52354;SDS011;38286;51.156;17.038;2023-02-22T07:37:00;54.08;;;17.48;;
52354;SDS011;38286;51.156;17.038;2023-02-22T07:39:25;47.80;;;18.25;;
52354;SDS011;38286;51.156;17.038;2023-02-22T07:41:51;52.83;;;18.50;;
52354;SDS011;38286;51.156;17.038;2023-02-22T07:44:17;45.80;;;18.20;;
52354;SDS011;38286;51.156;17.038;2023-02-22T07:46:46;37.13;;;14.20;;
52354;SDS011;38286;51.156;17.038;2023-02-22T07:49:13;40.40;;;16.50;;
52354;SDS011;38286;51.156;17.038;2023-02-22T07:51:38;46.58;;;16.83;;
52354;SDS011;38286;51.156;17.038;2023-02-22T07:54:05;38.70;;;15.68;;
52354;SDS011;38286;51.156;17.038;2023-02-22T07:56:31;34.75;;;14.32;;
52354;SDS011;38286;51.156;17.038;2023-02-22T07:58:57;41.38;;;11.98;;
52354;SDS011;38286;51.156;17.038;2023-02-22T08:01:22;28.85;;;11.73;;
52354;SDS011;38286;51.156;17.038;2023-02-22T08:03:49;34.35;;;11.02;;
52354;SDS011;38286;51.156;17.038;2023-02-22T08:06:14;28.85;;;9.85;;
52354;SDS011;38286;51.156;17.038;2023-02-22T08:08:40;30.92;;;10.02;;
52354;SDS011;38286;51.156;17.038;2023-02-22T08:11:07;30.92;;;10.30;;
52354;SDS011;38286;51.156;17.038;2023-02-22T08:13:33;27.13;;;9.65;;
52354;SDS011;38286;51.156;17.038;2023-02-22T08:15:58;26.45;;;8.32;;
52354;SDS011;38286;51.156;17.038;2023-02-22T08:18:24;32.67;;;9.00;;
52354;SDS011;38286;51.156;17.038;2023-02-22T08:20:50;26.33;;;8.45;;
52354;SDS011;38286;51.156;17.038;2023-02-22T08:23:18;24.05;;;8.10;;
52354;SDS011;38286;51.156;17.038;2023-02-22T08:25:44;33.05;;;8.88;;
52354;SDS011;38286;51.156;17.038;2023-02-22T08:28:15;28.20;;;8.82;;
52354;SDS011;38286;51.156;17.038;2023-02-22T08:30:42;39.10;;;9.20;;
52354;SDS011;38286;51.156;17.038;2023-02-22T08:33:09;31.65;;;9.50;;
52354;SDS011;38286;51.156;17.038;2023-02-22T08:35:38;31.13;;;9.93;;
52354;SDS011;38286;51.156;17.038;2023-02-22T08:38:06;31.55;;;8.32;;
52354;SDS011;38286;51.156;17.038;2023-02-22T08:40:33;21.80;;;5.80;;
52354;SDS011;38286;51.156;17.038;2023-02-22T08:43:01;19.85;;;5.38;;
52354;SDS011;38286;51.156;17.038;2023-02-22T08:45:27;20.77;;;5.28;;
52354;SDS011;38286;51.156;17.038;2023-02-22T08:47:53;23.23;;;6.07;;
52354;SDS011;38286;51.156;17.038;2023-02-22T08:50:23;21.33;;;5.88;;
52354;SDS011;38286;51.156;17.038;2023-02-22T08:55:23;29.42;;;7.30;;
52354;SDS011;38286;51.156;17.038;2023-02-22T08:57:50;23.45;;;7.30;;
52354;SDS011;38286;51.156;17.038;2023-02-22T09:00:16;25.73;;;7.22;;
52354;SDS011;38286;51.156;17.038;2023-02-22T09:02:43;23.60;;;7.50;;
52354;SDS011;38286;51.156;17.038;2023-02-22T09:05:09;24.05;;;6.65;;
52354;SDS011;38286;51.156;17.038;2023-02-22T09:07:34;21.90;;;5.40;;
52354;SDS011;38286;51.156;17.038;2023-02-22T09:10:00;20.90;;;5.80;;
52354;SDS011;38286;51.156;17.038;2023-02-22T09:12:26;20.52;;;4.43;;
52354;SDS011;38286;51.156;17.038;2023-02-22T09:14:51;26.45;;;5.45;;
52354;SDS011;38286;51.156;17.038;2023-02-22T09:17:17;15.18;;;4.40;;
52354;SDS011;38286;51.156;17.038;2023-02-22T09:19:43;23.60;;;5.43;;
52354;SDS011;38286;51.156;17.038;2023-02-22T09:22:10;23.35;;;4.65;;
52354;SDS011;38286;51.156;17.038;2023-02-22T09:24:35;21.83;;;4.88;;
52354;SDS011;38286;51.156;17.038;2023-02-22T09:27:01;25.13;;;4.70;;
52354;SDS011;38286;51.156;17.038;2023-02-22T09:29:28;18.02;;;3.95;;
52354;SDS011;38286;51.156;17.038;2023-02-22T09:31:55;21.35;;;4.38;;
52354;SDS011;38286;51.156;17.038;2023-02-22T09:34:21;17.95;;;4.22;;
52354;SDS011;38286;51.156;17.038;2023-02-22T09:36:54;20.65;;;4.28;;
52354;SDS011;38286;51.156;17.038;2023-02-22T09:39:24;16.42;;;4.40;;
52354;SDS011;38286;51.156;17.038;2023-02-22T09:46:41;15.48;;;3.72;;
52354;SDS011;38286;51.156;17.038;2023-02-22T09:49:23;22.10;;;3.97;;
52354;SDS011;38286;51.156;17.038;2023-02-22T09:54:37;20.85;;;5.25;;
52354;SDS011;38286;51.156;17.038;2023-02-22T09:57:06;20.45;;;4.40;;
52354;SDS011;38286;51.156;17.038;2023-02-22T09:59:39;23.50;;;4.28;;
52354;SDS011;38286;51.156;17.038;2023-02-22T10:04:55;16.70;;;4.47;;
52354;SDS011;38286;51.156;17.038;2023-02-22T10:07:30;12.80;;;2.72;;
52354;SDS011;38286;51.156;17.038;2023-02-22T10:09:57;14.60;;;2.85;;
52354;SDS011;38286;51.156;17.038;2023-02-22T10:15:35;16.50;;;2.67;;
52354;SDS011;38286;51.156;17.038;2023-02-22T10:23:40;14.48;;;3.42;;
52354;SDS011;38286;51.156;17.038;2023-02-22T10:26:40;12.02;;;2.85;;
52354;SDS011;38286;51.156;17.038;2023-02-22T10:29:16;14.07;;;2.42;;
52354;SDS011;38286;51.156;17.038;2023-02-22T10:31:49;11.77;;;2.72;;
52354;SDS011;38286;51.156;17.038;2023-02-22T10:34:19;15.30;;;2.97;;
52354;SDS011;38286;51.156;17.038;2023-02-22T10:36:49;10.00;;;2.45;;
52354;SDS011;38286;51.156;17.038;2023-02-22T10:39:35;13.25;;;3.03;;
52354;SDS011;38286;51.156;17.038;2023-02-22T10:42:03;17.73;;;3.13;;
52354;SDS011;38286;51.156;17.038;2023-02-22T10:44:34;12.43;;;2.45;;
52354;SDS011;38286;51.156;17.038;2023-02-22T10:47:01;15.75;;;3.20;;
52354;SDS011;38286;51.156;17.038;2023-02-22T10:49:33;21.67;;;3.17;;
52354;SDS011;38286;51.156;17.038;2023-02-22T10:52:01;16.70;;;2.95;;
52354;SDS011;38286;51.156;17.038;2023-02-22T10:54:32;10.32;;;2.83;;
52354;SDS011;38286;51.156;17.038;2023-02-22T10:57:00;14.88;;;2.45;;
52354;SDS011;38286;51.156;17.038;2023-02-22T10:59:32;13.20;;;3.15;;
52354;SDS011;38286;51.156;17.038;2023-02-22T11:01:59;12.85;;;3.05;;
52354;SDS011;38286;51.156;17.038;2023-02-22T11:04:45;13.25;;;2.42;;
52354;SDS011;38286;51.156;17.038;2023-02-22T11:07:18;10.55;;;2.33;;
52354;SDS011;38286;51.156;17.038;2023-02-22T11:09:56;11.57;;;2.63;;
52354;SDS011;38286;51.156;17.038;2023-02-22T11:12:28;17.08;;;3.10;;
52354;SDS011;38286;51.156;17.038;2023-02-22T11:14:56;13.10;;;2.90;;
52354;SDS011;38286;51.156;17.038;2023-02-22T11:17:30;12.27;;;2.90;;
52354;SDS011;38286;51.156;17.038;2023-02-22T11:19:56;15.82;;;2.88;;
52354;SDS011;38286;51.156;17.038;2023-02-22T11:22:27;13.15;;;3.15;;
52354;SDS011;38286;51.156;17.038;2023-02-22T11:24:57;13.20;;;3.13;;
52354;SDS011;38286;51.156;17.038;2023-02-22T11:27:27;21.60;;;3.00;;
52354;SDS011;38286;51.156;17.038;2023-02-22T11:32:52;19.63;;;3.37;;
52354;SDS011;38286;51.156;17.038;2023-02-22T11:37:52;17.10;;;3.55;;
52354;SDS011;38286;51.156;17.038;2023-02-22T11:40:19;15.82;;;2.70;;
52354;SDS011;38286;51.156;17.038;2023-02-22T11:45:57;17.15;;;3.55;;
52354;SDS011;38286;51.156;17.038;2023-02-22T11:48:25;17.27;;;3.40;;
52354;SDS011;38286;51.156;17.038;2023-02-22T11:50:59;13.85;;;3.40;;
52354;SDS011;38286;51.156;17.038;2023-02-22T11:56:10;15.80;;;3.63;;
52354;SDS011;38286;51.156;17.038;2023-02-22T11:58:49;19.40;;;3.85;;
52354;SDS011;38286;51.156;17.038;2023-02-22T12:04:45;14.30;;;3.70;;
52354;SDS011;38286;51.156;17.038;2023-02-22T12:07:21;13.93;;;3.28;;
52354;SDS011;38286;51.156;17.038;2023-02-22T12:21:12;12.25;;;3.08;;
52354;SDS011;38286;51.156;17.038;2023-02-22T12:23:46;15.05;;;3.25;;
52354;SDS011;38286;51.156;17.038;2023-02-22T12:26:34;14.70;;;3.47;;
52354;SDS011;38286;51.156;17.038;2023-02-22T12:29:13;15.10;;;3.38;;
52354;SDS011;38286;51.156;17.038;2023-02-22T12:31:48;9.20;;;2.92;;
52354;SDS011;38286;51.156;17.038;2023-02-22T12:34:37;13.00;;;3.60;;
52354;SDS011;38286;51.156;17.038;2023-02-22T12:39:48;16.20;;;3.50;;
52354;SDS011;38286;51.156;17.038;2023-02-22T12:42:31;16.40;;;3.22;;
52354;SDS011;38286;51.156;17.038;2023-02-22T12:47:59;15.32;;;3.45;;
52354;SDS011;38286;51.156;17.038;2023-02-22T12:50:32;16.40;;;3.25;;
52354;SDS011;38286;51.156;17.038;2023-02-22T12:53:19;10.52;;;3.00;;
52354;SDS011;38286;51.156;17.038;2023-02-22T12:55:54;15.38;;;3.45;;
52354;SDS011;38286;51.156;17.038;2023-02-22T12:58:38;12.82;;;2.95;;
52354;SDS011;38286;51.156;17.038;2023-02-22T13:01:16;12.52;;;3.60;;
52354;SDS011;38286;51.156;17.038;2023-02-22T13:03:44;12.40;;;3.20;;
52354;SDS011;38286;51.156;17.038;2023-02-22T13:08:52;14.00;;;3.10;;
52354;SDS011;38286;51.156;17.038;2023-02-22T13:11:27;12.13;;;2.65;;
52354;SDS011;38286;51.156;17.038;2023-02-22T13:16:35;13.20;;;3.10;;
52354;SDS011;38286;51.156;17.038;2023-02-22T13:19:19;9.15;;;2.72;;
52354;SDS011;38286;51.156;17.038;2023-02-22T13:22:01;17.30;;;3.30;;
52354;SDS011;38286;51.156;17.038;2023-02-22T13:24:41;19.35;;;3.78;;
52354;SDS011;38286;51.156;17.038;2023-02-22T13:27:12;16.92;;;3.53;;
52354;SDS011;38286;51.156;17.038;2023-02-22T13:29:53;13.85;;;2.90;;
52354;SDS011;38286;51.156;17.038;2023-02-22T13:32:30;15.55;;;2.90;;
52354;SDS011;38286;51.156;17.038;2023-02-22T13:35:34;13.32;;;3.38;;
52354;SDS011;38286;51.156;17.038;2023-02-22T13:38:10;11.65;;;3.58;;
52354;SDS011;38286;51.156;17.038;2023-02-22T13:41:24;13.23;;;3.72;;
52354;SDS011;38286;51.156;17.038;2023-02-22T13:49:56;14.30;;;3.30;;
52354;SDS011;38286;51.156;17.038;2023-02-22T13:52:30;18.67;;;3.45;;
52354;SDS011;38286;51.156;17.038;2023-02-22T13:55:00;11.50;;;3.33;;
52354;SDS011;38286;51.156;17.038;2023-02-22T13:57:30;18.25;;;3.75;;
52354;SDS011;38286;51.156;17.038;2023-02-22T14:02:56;13.32;;;3.45;;
52354;SDS011;38286;51.156;17.038;2023-02-22T14:05:45;20.02;;;4.45;;
52354;SDS011;38286;51.156;17.038;2023-02-22T14:10:54;14.50;;;3.50;;
52354;SDS011;38286;51.156;17.038;2023-02-22T14:13:21;11.90;;;3.40;;
52354;SDS011;38286;51.156;17.038;2023-02-22T14:18:48;11.63;;;3.13;;
52354;SDS011;38286;51.156;17.038;2023-02-22T14:21:19;13.43;;;2.90;;
52354;SDS011;38286;51.156;17.038;2023-02-22T14:26:34;11.20;;;3.25;;
52354;SDS011;38286;51.156;17.038;2023-02-22T14:31:52;12.85;;;3.95;;
52354;SDS011;38286;51.156;17.038;2023-02-22T14:34:42;17.05;;;3.75;;
52354;SDS011;38286;51.156;17.038;2023-02-22T14:37:15;15.85;;;3.42;;
52354;SDS011;38286;51.156;17.038;2023-02-22T14:42:47;13.63;;;3.80;;
52354;SDS011;38286;51.156;17.038;2023-02-22T14:50:42;13.13;;;3.53;;
52354;SDS011;38286;51.156;17.038;2023-02-22T14:53:40;12.55;;;3.15;;
52354;SDS011;38286;51.156;17.038;2023-02-22T14:56:14;10.43;;;3.22;;
52354;SDS011;38286;51.156;17.038;2023-02-22T14:58:47;12.20;;;3.17;;
52354;SDS011;38286;51.156;17.038;2023-02-22T15:03:55;13.25;;;3.55;;
52354;SDS011;38286;51.156;17.038;2023-02-22T15:06:27;16.10;;;3.28;;
52354;SDS011;38286;51.156;17.038;2023-02-22T15:14:27;9.02;;;2.80;;
52354;SDS011;38286;51.156;17.038;2023-02-22T15:16:55;12.60;;;3.42;;
52354;SDS011;38286;51.156;17.038;2023-02-22T15:19:27;16.00;;;3.50;;
52354;SDS011;38286;51.156;17.038;2023-02-22T15:21:55;9.98;;;3.08;;
52354;SDS011;38286;51.156;17.038;2023-02-22T15:24:23;14.15;;;3.40;;
52354;SDS011;38286;51.156;17.038;2023-02-22T15:26:49;12.48;;;3.17;;
52354;SDS011;38286;51.156;17.038;2023-02-22T15:29:28;14.10;;;3.13;;
52354;SDS011;38286;51.156;17.038;2023-02-22T15:32:16;15.18;;;3.70;;
52354;SDS011;38286;51.156;17.038;2023-02-22T15:34:51;11.45;;;3.42;;
52354;SDS011;38286;51.156;17.038;2023-02-22T15:37:24;13.60;;;3.20;;
52354;SDS011;38286;51.156;17.038;2023-02-22T15:39:52;18.15;;;3.65;;
52354;SDS011;38286;51.156;17.038;2023-02-22T15:42:26;10.88;;;3.33;;
52354;SDS011;38286;51.156;17.038;2023-02-22T15:44:54;16.63;;;5.32;;
52354;SDS011;38286;51.156;17.038;2023-02-22T15:47:21;19.45;;;5.05;;
52354;SDS011;38286;51.156;17.038;2023-02-22T15:55:33;19.10;;;4.60;;
52354;SDS011;38286;51.156;17.038;2023-02-22T15:58:07;15.75;;;3.85;;
52354;SDS011;38286;51.156;17.038;2023-02-22T16:00:36;13.73;;;4.47;;
52354;SDS011;38286;51.156;17.038;2023-02-22T16:03:13;13.57;;;4.65;;
52354;SDS011;38286;51.156;17.038;2023-02-22T16:05:48;14.60;;;4.32;;
52354;SDS011;38286;51.156;17.038;2023-02-22T16:08:17;14.95;;;5.05;;
52354;SDS011;38286;51.156;17.038;2023-02-22T16:11:06;21.52;;;6.03;;
52354;SDS011;38286;51.156;17.038;2023-02-22T16:13:37;57.10;;;19.17;;
52354;SDS011;38286;51.156;17.038;2023-02-22T16:16:18;28.48;;;9.75;;
52354;SDS011;38286;51.156;17.038;2023-02-22T16:18:49;22.93;;;6.57;;
52354;SDS011;38286;51.156;17.038;2023-02-22T16:21:17;18.17;;;5.78;;
52354;SDS011;38286;51.156;17.038;2023-02-22T16:23:52;18.33;;;5.00;;
52354;SDS011;38286;51.156;17.038;2023-02-22T16:26:32;15.75;;;4.65;;
52354;SDS011;38286;51.156;17.038;2023-02-22T16:29:03;19.77;;;4.70;;
52354;SDS011;38286;51.156;17.038;2023-02-22T16:31:37;17.90;;;4.78;;
52354;SDS011;38286;51.156;17.038;2023-02-22T16:34:05;16.80;;;4.60;;
52354;SDS011;38286;51.156;17.038;2023-02-22T16:36:50;17.67;;;4.28;;
52354;SDS011;38286;51.156;17.038;2023-02-22T16:39:19;18.15;;;5.03;;
52354;SDS011;38286;51.156;17.038;2023-02-22T16:41:49;15.88;;;5.32;;